METAR Data
IDs: Format: Raw Decoded Include TAF

Data at: 2157 UTC 18 Apr 2021

KMGC 182135Z AUTO 00000KT 10SM OVC120 15/M02 A2987 RMK AO2